Time;durP1;ratioP1;P1;durP2;ratioP2;P2;SDS_P1;SDS_P2;PMS_P1;PMS_P2;Temp;Humidity;BMP_temperature;BMP_pressure;BME280_temperature;BME280_humidity;BME280_pressure;Samples;Min_cycle;Max_cycle;Signal;HPM_P1;HPM_P2
2023/07/02 00:00:08;;;;;;;3.30;2.67;;;17.30;99.90;;;;;;5051565;28;20398;-69
2023/07/02 00:02:33;;;;;;;8.07;3.10;;;17.30;99.90;;;;;;5051858;28;20609;-69
2023/07/02 00:04:59;;;;;;;2.63;2.30;;;17.40;99.90;;;;;;5051693;28;20401;-70
2023/07/02 00:07:27;;;;;;;3.30;2.70;;;17.40;99.90;;;;;;5051424;28;20253;-69
2023/07/02 00:09:53;;;;;;;7.43;3.20;;;17.40;99.90;;;;;;5051782;28;20688;-69
2023/07/02 00:12:18;;;;;;;3.93;3.20;;;17.40;99.90;;;;;;5051605;28;20489;-69
2023/07/02 00:14:44;;;;;;;4.70;2.43;;;17.40;99.90;;;;;;5053051;28;20219;-70
2023/07/02 00:17:13;;;;;;;5.00;2.90;;;17.40;99.90;;;;;;5055622;28;20194;-70
2023/07/02 00:19:41;;;;;;;4.83;2.50;;;17.50;99.90;;;;;;5054425;28;20174;-69
2023/07/02 00:22:10;;;;;;;4.07;2.50;;;17.50;99.90;;;;;;5055496;28;20409;-69
2023/07/02 00:24:36;;;;;;;2.77;2.57;;;17.50;99.90;;;;;;5055557;28;21067;-68
2023/07/02 00:27:02;;;;;;;4.83;2.90;;;17.60;99.90;;;;;;5055180;28;20452;-69
2023/07/02 00:29:27;;;;;;;4.07;3.30;;;17.60;99.90;;;;;;5055599;28;20774;-69
2023/07/02 00:31:53;;;;;;;5.10;3.00;;;17.40;99.90;;;;;;5054228;28;20174;-68
2023/07/02 00:34:19;;;;;;;5.60;3.20;;;17.40;99.90;;;;;;5055567;28;20163;-69
2023/07/02 00:36:44;;;;;;;6.07;3.30;;;17.40;99.90;;;;;;5055081;28;20186;-69
2023/07/02 00:39:11;;;;;;;3.57;2.70;;;17.40;99.90;;;;;;5055441;28;20405;-70
2023/07/02 00:41:37;;;;;;;9.80;3.90;;;17.40;99.90;;;;;;5055300;28;20174;-69
2023/07/02 00:44:03;;;;;;;11.77;3.23;;;17.30;99.90;;;;;;5054092;28;20413;-69
2023/07/02 00:46:30;;;;;;;3.30;2.97;;;17.30;99.90;;;;;;5054852;28;20194;-70
2023/07/02 00:48:56;;;;;;;4.93;2.50;;;17.20;99.90;;;;;;5055322;28;20621;-69
2023/07/02 00:51:26;;;;;;;6.93;2.97;;;17.20;99.90;;;;;;5055198;28;20433;-68
2023/07/02 00:53:56;;;;;;;6.80;4.00;;;17.20;99.90;;;;;;5055120;28;20177;-68
2023/07/02 00:56:22;;;;;;;10.27;3.40;;;17.10;99.90;;;;;;5055133;28;20905;-69
2023/07/02 00:58:50;;;;;;;5.23;3.00;;;17.10;99.90;;;;;;5055005;28;20486;-69
2023/07/02 01:01:20;;;;;;;8.20;3.00;;;17.10;99.90;;;;;;5055049;28;20412;-69
2023/07/02 01:03:56;;;;;;;6.53;3.53;;;17.10;99.90;;;;;;5054969;28;20433;-69
2023/07/02 01:06:43;;;;;;;10.83;3.60;;;17.00;99.90;;;;;;5054190;28;20579;-69
2023/07/02 01:09:09;;;;;;;8.30;4.00;;;17.10;99.90;;;;;;5053639;28;20397;-69
2023/07/02 01:11:45;;;;;;;5.50;3.07;;;17.10;99.90;;;;;;5053564;28;20413;-68
2023/07/02 01:14:16;;;;;;;5.30;3.17;;;17.10;99.90;;;;;;5053633;28;20401;-68
2023/07/02 01:16:43;;;;;;;6.97;3.33;;;17.10;99.90;;;;;;5053307;28;20421;-68
2023/07/02 01:19:41;;;;;;;11.20;4.17;;;17.00;99.90;;;;;;5053553;28;20410;-68
2023/07/02 01:22:08;;;;;;;5.37;3.90;;;16.90;99.90;;;;;;5048455;28;20425;-69
2023/07/02 01:24:33;;;;;;;6.17;3.63;;;16.90;99.90;;;;;;5053493;28;20910;-69
2023/07/02 01:27:02;;;;;;;6.40;4.10;;;16.90;99.90;;;;;;5052690;28;20452;-68
2023/07/02 01:29:30;;;;;;;8.40;4.23;;;16.90;99.90;;;;;;5053300;28;20163;-70
2023/07/02 01:31:56;;;;;;;6.17;3.90;;;16.90;99.90;;;;;;5053401;28;20463;-68
2023/07/02 01:34:21;;;;;;;4.00;3.60;;;16.90;99.90;;;;;;5053301;28;20433;-69
2023/07/02 01:36:47;;;;;;;8.10;4.37;;;16.90;99.90;;;;;;5052933;28;20460;-69
2023/07/02 01:39:12;;;;;;;10.07;5.20;;;16.90;99.90;;;;;;5051974;28;20628;-69
2023/07/02 01:41:52;;;;;;;5.67;4.30;;;16.80;99.90;;;;;;5053172;28;20655;-68
2023/07/02 01:44:18;;;;;;;9.77;4.13;;;16.80;99.90;;;;;;5053053;28;20173;-68
2023/07/02 01:46:50;;;;;;;9.07;5.03;;;16.80;99.90;;;;;;5052628;28;20445;-70
2023/07/02 01:49:19;;;;;;;8.40;5.70;;;16.80;99.90;;;;;;5053081;28;20408;-68
2023/07/02 01:51:52;;;;;;;10.03;4.60;;;16.70;99.90;;;;;;5052880;28;20914;-68
2023/07/02 01:54:18;;;;;;;9.43;4.83;;;16.70;99.90;;;;;;5052927;28;20410;-69
2023/07/02 01:56:44;;;;;;;10.47;4.87;;;16.70;99.90;;;;;;5052560;28;20534;-68
2023/07/02 01:59:09;;;;;;;7.17;5.00;;;16.70;99.90;;;;;;5051643;28;20986;-69
2023/07/02 02:01:35;;;;;;;11.33;5.50;;;16.70;99.90;;;;;;5052377;28;20258;-68
2023/07/02 02:04:01;;;;;;;13.90;6.03;;;16.60;99.90;;;;;;5052829;28;20628;-68
2023/07/02 02:06:26;;;;;;;7.53;5.20;;;16.60;99.90;;;;;;5015446;28;1058044;-70
2023/07/02 02:08:52;;;;;;;17.80;6.00;;;16.60;99.90;;;;;;5053657;28;20155;-69
2023/07/02 02:11:17;;;;;;;7.57;5.60;;;16.60;99.90;;;;;;5053691;28;20611;-68
2023/07/02 02:13:43;;;;;;;9.37;5.50;;;16.60;99.90;;;;;;5053698;28;20175;-69
2023/07/02 02:16:08;;;;;;;12.50;6.33;;;16.60;99.90;;;;;;5053329;28;20190;-69
2023/07/02 02:18:34;;;;;;;7.30;5.20;;;16.60;99.90;;;;;;5053528;28;20174;-68
2023/07/02 02:21:00;;;;;;;12.60;6.27;;;16.60;99.90;;;;;;5053341;28;20159;-69
2023/07/02 02:23:25;;;;;;;7.87;5.20;;;16.50;99.90;;;;;;5053469;28;20405;-69
2023/07/02 02:25:51;;;;;;;19.20;8.83;;;16.50;99.90;;;;;;5053138;28;20162;-69
2023/07/02 02:28:16;;;;;;;13.70;6.20;;;16.50;99.90;;;;;;5053300;28;20199;-69
2023/07/02 02:30:42;;;;;;;15.50;6.80;;;16.50;99.90;;;;;;5053307;28;20171;-69
2023/07/02 02:33:07;;;;;;;16.13;7.83;;;16.50;99.90;;;;;;5053321;28;20175;-69
2023/07/02 02:35:33;;;;;;;10.53;6.47;;;16.50;99.90;;;;;;5052954;28;20585;-70
2023/07/02 02:38:02;;;;;;;10.90;6.10;;;16.50;99.90;;;;;;5052366;28;20187;-69
2023/07/02 02:40:28;;;;;;;11.80;5.47;;;16.40;99.90;;;;;;5053120;28;20182;-69
2023/07/02 02:42:53;;;;;;;15.90;7.00;;;16.50;99.90;;;;;;5053055;28;20774;-69
2023/07/02 02:45:19;;;;;;;12.77;6.63;;;16.50;99.90;;;;;;5052843;28;20220;-69
2023/07/02 02:47:46;;;;;;;9.80;6.00;;;16.40;99.90;;;;;;5052703;28;20191;-69
2023/07/02 02:50:12;;;;;;;9.83;6.53;;;16.40;99.90;;;;;;5052975;28;20224;-70
2023/07/02 02:52:38;;;;;;;10.80;6.10;;;16.30;99.90;;;;;;5052887;28;20769;-68
2023/07/02 02:55:06;;;;;;;13.13;7.67;;;16.40;99.90;;;;;;5052638;28;20480;-69
2023/07/02 02:57:32;;;;;;;11.10;6.87;;;16.30;99.90;;;;;;5051406;28;20717;-68
2023/07/02 02:59:58;;;;;;;9.73;6.60;;;16.30;99.90;;;;;;5052844;28;20417;-69
2023/07/02 03:02:23;;;;;;;11.00;6.70;;;16.20;99.90;;;;;;5052418;28;20409;-69
2023/07/02 03:04:49;;;;;;;15.50;9.80;;;16.20;99.90;;;;;;5052656;28;20433;-69
2023/07/02 03:07:15;;;;;;;15.90;8.97;;;16.10;99.90;;;;;;5052144;28;20207;-69
2023/07/02 03:09:40;;;;;;;10.60;7.17;;;16.10;99.90;;;;;;5051315;28;20640;-69
2023/07/02 03:12:07;;;;;;;12.00;6.97;;;16.10;99.90;;;;;;5052577;28;20410;-70
2023/07/02 03:14:32;;;;;;;15.63;6.57;;;16.00;99.90;;;;;;5052605;28;20597;-68
2023/07/02 03:16:58;;;;;;;17.57;7.50;;;16.00;99.90;;;;;;5052154;28;20460;-68
2023/07/02 03:19:24;;;;;;;11.13;5.50;;;16.00;99.90;;;;;;5052480;28;20170;-68
2023/07/02 03:21:49;;;;;;;8.87;6.77;;;16.00;99.90;;;;;;5052370;28;20171;-69
2023/07/02 03:24:16;;;;;;;18.70;8.80;;;16.00;99.90;;;;;;5052310;28;20769;-68
2023/07/02 03:26:42;;;;;;;13.40;6.73;;;15.90;99.90;;;;;;5052023;28;20331;-68
2023/07/02 03:29:08;;;;;;;16.50;8.77;;;15.90;99.90;;;;;;5052342;28;20401;-68
2023/07/02 03:31:33;;;;;;;16.57;9.33;;;15.80;99.90;;;;;;5052255;28;20404;-69
2023/07/02 03:34:04;;;;;;;14.30;7.47;;;15.90;99.90;;;;;;5052120;28;20240;-69
2023/07/02 03:36:29;;;;;;;13.40;8.00;;;15.90;99.90;;;;;;5051939;28;20270;-68
2023/07/02 03:38:55;;;;;;;17.80;8.07;;;15.90;99.90;;;;;;5050794;28;20444;-68
2023/07/02 03:41:20;;;;;;;14.17;8.03;;;16.00;99.90;;;;;;5052158;28;20171;-69
2023/07/02 03:43:47;;;;;;;14.43;8.20;;;16.00;99.90;;;;;;5052057;28;20557;-69
2023/07/02 03:46:13;;;;;;;14.77;8.67;;;16.00;99.90;;;;;;5051642;28;20258;-69
2023/07/02 03:48:39;;;;;;;12.67;7.37;;;16.10;99.90;;;;;;5051828;28;20944;-69
2023/07/02 03:51:05;;;;;;;15.87;8.67;;;16.00;99.90;;;;;;5051982;28;20406;-69
2023/07/02 03:53:30;;;;;;;13.53;8.60;;;16.00;99.90;;;;;;5051800;28;20163;-69
2023/07/02 03:55:56;;;;;;;13.57;8.40;;;16.00;99.90;;;;;;5051377;28;20162;-68
2023/07/02 03:58:21;;;;;;;13.43;8.53;;;16.00;99.90;;;;;;5051710;28;20194;-69
2023/07/02 04:00:49;;;;;;;25.33;9.63;;;16.10;99.90;;;;;;5051908;28;20174;-70
2023/07/02 04:03:15;;;;;;;14.37;8.50;;;16.10;99.90;;;;;;5051769;28;20167;-69
2023/07/02 04:05:41;;;;;;;25.70;12.40;;;16.10;99.90;;;;;;5051516;28;20409;-69
2023/07/02 04:08:07;;;;;;;16.67;9.00;;;16.20;99.90;;;;;;5051556;28;20468;-68
2023/07/02 04:10:33;;;;;;;19.23;9.37;;;16.30;99.90;;;;;;5050374;28;20782;-69
2023/07/02 04:12:58;;;;;;;20.00;9.77;;;16.30;99.90;;;;;;5051765;28;20163;-69
2023/07/02 04:15:25;;;;;;;22.07;8.97;;;16.40;99.90;;;;;;5051457;28;20163;-70
2023/07/02 04:17:51;;;;;;;14.73;8.13;;;16.50;99.90;;;;;;5051537;28;20347;-69
2023/07/02 04:20:18;;;;;;;16.80;9.00;;;16.50;99.90;;;;;;5051602;28;20568;-69
2023/07/02 04:22:44;;;;;;;21.83;10.53;;;16.50;99.90;;;;;;5051689;28;20171;-69
2023/07/02 04:25:11;;;;;;;21.47;10.30;;;16.50;99.90;;;;;;5051337;28;20412;-70
2023/07/02 04:27:36;;;;;;;17.33;10.93;;;16.60;99.90;;;;;;5051463;28;20457;-71
2023/07/02 04:30:03;;;;;;;12.23;8.03;;;16.70;99.90;;;;;;5051639;28;20496;-71
2023/07/02 04:32:28;;;;;;;17.63;9.10;;;16.70;99.90;;;;;;5051611;28;20170;-71
2023/07/02 04:34:54;;;;;;;21.47;8.83;;;16.60;99.90;;;;;;5051409;28;20405;-72
2023/07/02 04:37:21;;;;;;;20.33;8.50;;;16.60;99.90;;;;;;5051422;28;20199;-71
2023/07/02 04:39:47;;;;;;;36.33;11.83;;;16.60;99.90;;;;;;5051601;28;20193;-70
2023/07/02 04:42:14;;;;;;;11.93;8.60;;;16.70;99.90;;;;;;5051558;28;20909;-71
2023/07/02 04:44:43;;;;;;;17.80;10.50;;;16.70;99.90;;;;;;5051541;28;20171;-71
2023/07/02 04:47:08;;;;;;;22.63;11.73;;;16.80;99.90;;;;;;5051004;28;20833;-74
2023/07/02 04:49:34;;;;;;;14.83;9.90;;;16.70;99.90;;;;;;5051433;28;20508;-71
2023/07/02 04:51:59;;;;;;;20.57;9.47;;;16.80;99.90;;;;;;5051434;28;20167;-71
2023/07/02 04:54:25;;;;;;;21.57;9.80;;;16.80;99.90;;;;;;5051435;28;20209;-72
2023/07/02 04:56:51;;;;;;;19.87;10.37;;;16.80;99.90;;;;;;5051042;28;20194;-71
2023/07/02 04:59:16;;;;;;;18.50;10.00;;;16.90;99.90;;;;;;5051464;28;20545;-71
2023/07/02 05:01:42;;;;;;;23.20;11.03;;;17.10;99.90;;;;;;5053956;28;20202;-71
2023/07/02 05:04:11;;;;;;;20.33;9.40;;;17.10;99.90;;;;;;5055042;28;20182;-71
2023/07/02 05:06:36;;;;;;;14.50;10.10;;;17.20;99.90;;;;;;5054481;28;20472;-72
2023/07/02 05:09:02;;;;;;;21.63;11.50;;;17.20;99.90;;;;;;5054951;28;20406;-71
2023/07/02 05:11:28;;;;;;;21.27;11.30;;;17.20;99.90;;;;;;5054875;28;20229;-71
2023/07/02 05:13:53;;;;;;;18.10;9.80;;;17.40;99.90;;;;;;5054878;28;20181;-71
2023/07/02 05:16:19;;;;;;;21.27;10.97;;;17.40;99.90;;;;;;5054257;28;20490;-73
2023/07/02 05:18:44;;;;;;;22.30;11.10;;;17.40;99.90;;;;;;5054796;28;20169;-71
2023/07/02 05:21:10;;;;;;;20.13;11.50;;;17.50;99.90;;;;;;5054723;28;20198;-71
2023/07/02 05:23:36;;;;;;;17.97;10.60;;;17.40;99.90;;;;;;5054755;28;20531;-71
2023/07/02 05:26:02;;;;;;;21.00;10.57;;;17.40;99.90;;;;;;5054378;28;20397;-71
2023/07/02 05:28:27;;;;;;;18.97;11.30;;;17.60;99.90;;;;;;5054524;28;20187;-73
2023/07/02 05:30:53;;;;;;;25.77;14.07;;;17.80;99.90;;;;;;5054533;28;20159;-70
2023/07/02 05:33:19;;;;;;;19.70;13.20;;;17.90;99.90;;;;;;5054443;28;20178;-71
2023/07/02 05:35:45;;;;;;;23.40;11.50;;;18.00;99.90;;;;;;5054175;28;20213;-71
2023/07/02 05:38:11;;;;;;;19.53;10.97;;;18.10;99.90;;;;;;5054274;28;20451;-71
2023/07/02 05:40:37;;;;;;;18.67;10.30;;;18.20;99.90;;;;;;5054444;28;20412;-71
2023/07/02 05:43:03;;;;;;;22.70;13.20;;;18.40;99.90;;;;;;5054245;28;20174;-72
2023/07/02 05:45:28;;;;;;;20.80;10.63;;;18.40;99.90;;;;;;5053973;28;20179;-72
2023/07/02 05:47:54;;;;;;;21.00;10.60;;;18.60;99.90;;;;;;5053953;28;20699;-71
2023/07/02 05:50:20;;;;;;;25.00;12.47;;;18.80;99.90;;;;;;5052877;28;20417;-73
2023/07/02 05:52:45;;;;;;;21.40;11.77;;;18.70;99.90;;;;;;5054076;28;20248;-71
2023/07/02 05:55:11;;;;;;;22.70;11.23;;;18.70;99.90;;;;;;5053866;28;20163;-71
2023/07/02 05:57:38;;;;;;;19.40;11.80;;;18.70;99.90;;;;;;5053963;28;20190;-72
2023/07/02 06:00:06;;;;;;;25.77;13.10;;;18.80;99.90;;;;;;5053985;28;20244;-72
2023/07/02 06:02:32;;;;;;;19.70;11.30;;;18.90;99.90;;;;;;5053727;28;20412;-72
2023/07/02 06:04:58;;;;;;;17.87;11.07;;;19.10;99.90;;;;;;5053709;28;20814;-72
2023/07/02 06:07:26;;;;;;;20.13;11.73;;;19.20;99.90;;;;;;5054143;28;20252;-72
2023/07/02 06:09:51;;;;;;;19.10;12.20;;;19.10;99.90;;;;;;5054328;28;20170;-72
2023/07/02 06:12:17;;;;;;;28.67;12.50;;;19.30;99.90;;;;;;5053279;28;20409;-71
2023/07/02 06:14:42;;;;;;;30.60;12.97;;;19.30;99.90;;;;;;5054358;28;20216;-73
2023/07/02 06:17:09;;;;;;;19.47;11.90;;;19.30;99.90;;;;;;5053819;28;20190;-71
2023/07/02 06:19:36;;;;;;;23.63;11.90;;;19.30;99.90;;;;;;5053690;28;20158;-71
2023/07/02 06:22:02;;;;;;;25.67;13.63;;;19.60;99.90;;;;;;5053542;28;20410;-71
2023/07/02 06:24:27;;;;;;;19.93;11.90;;;19.80;99.90;;;;;;5053513;28;20404;-73
2023/07/02 06:26:53;;;;;;;28.50;13.17;;;20.00;99.90;;;;;;5052723;28;20241;-73
2023/07/02 06:29:18;;;;;;;26.07;12.67;;;19.80;99.90;;;;;;5053209;28;20583;-72
2023/07/02 06:31:44;;;;;;;19.13;12.07;;;20.00;99.90;;;;;;5053367;28;20171;-73
2023/07/02 06:34:09;;;;;;;15.33;10.70;;;20.40;99.90;;;;;;5053133;28;20181;-72
2023/07/02 06:36:35;;;;;;;28.33;11.90;;;20.50;99.90;;;;;;5052861;28;20191;-72
2023/07/02 06:39:01;;;;;;;23.60;12.80;;;20.60;99.90;;;;;;5053204;28;20163;-72
2023/07/02 06:41:26;;;;;;;18.40;13.00;;;20.60;99.90;;;;;;5053267;28;20538;-72
2023/07/02 06:43:52;;;;;;;27.57;12.67;;;20.50;99.90;;;;;;5053434;28;20174;-72
2023/07/02 06:46:17;;;;;;;26.30;13.20;;;20.40;99.90;;;;;;5053070;28;20224;-72
2023/07/02 06:48:43;;;;;;;19.60;11.33;;;20.20;99.90;;;;;;5053603;28;20159;-72
2023/07/02 06:51:09;;;;;;;26.83;12.03;;;20.30;99.90;;;;;;5053202;28;20167;-72
2023/07/02 06:53:36;;;;;;;19.50;11.37;;;20.50;99.90;;;;;;5053474;28;20174;-72
2023/07/02 06:56:02;;;;;;;19.03;12.23;;;20.40;99.90;;;;;;5053217;28;20159;-72
2023/07/02 06:58:27;;;;;;;20.73;12.67;;;20.70;99.90;;;;;;5053267;28;20434;-73
2023/07/02 07:00:53;;;;;;;24.07;11.10;;;20.70;99.90;;;;;;5053188;28;20189;-72
2023/07/02 07:03:18;;;;;;;27.67;11.93;;;21.00;99.90;;;;;;5053490;28;20640;-71
2023/07/02 07:05:44;;;;;;;20.97;11.47;;;21.20;99.90;;;;;;5053111;28;20171;-72
2023/07/02 07:08:09;;;;;;;22.10;11.63;;;21.30;99.90;;;;;;5052897;28;20214;-72
2023/07/02 07:10:35;;;;;;;27.43;12.60;;;21.50;99.90;;;;;;5053260;28;20292;-72
2023/07/02 07:13:04;;;;;;;26.87;11.70;;;21.70;99.90;;;;;;5052952;28;20213;-72
2023/07/02 07:15:34;;;;;;;26.53;12.83;;;22.00;99.90;;;;;;5052618;28;20182;-71
2023/07/02 07:18:00;;;;;;;20.37;11.27;;;22.30;99.90;;;;;;5052987;28;20416;-71
2023/07/02 07:20:26;;;;;;;24.80;11.97;;;22.40;99.90;;;;;;5052434;28;20467;-71
2023/07/02 07:22:51;;;;;;;22.87;10.83;;;22.20;99.90;;;;;;5051940;28;20930;-68
2023/07/02 07:25:17;;;;;;;18.73;10.60;;;22.60;99.90;;;;;;5052003;28;20174;-68
2023/07/02 07:27:42;;;;;;;13.37;8.63;;;23.00;99.90;;;;;;5052122;28;20214;-69
2023/07/02 07:30:08;;;;;;;16.20;9.00;;;23.30;99.90;;;;;;5052300;28;20198;-68
2023/07/02 07:32:34;;;;;;;14.37;8.00;;;23.90;99.90;;;;;;5052367;28;20249;-73
2023/07/02 07:34:59;;;;;;;18.20;9.80;;;24.30;99.90;;;;;;5051908;28;20193;-68
2023/07/02 07:37:25;;;;;;;15.47;8.40;;;24.60;99.90;;;;;;5052147;28;20229;-71
2023/07/02 07:39:51;;;;;;;15.37;10.97;;;24.90;99.90;;;;;;5052244;28;20201;-70
2023/07/02 07:42:16;;;;;;;15.80;10.40;;;25.80;99.90;;;;;;5051983;28;20174;-69
2023/07/02 07:44:44;;;;;;;20.50;11.10;;;26.40;96.40;;;;;;5052060;28;20324;-69
2023/07/02 07:47:09;;;;;;;16.73;9.23;;;27.10;92.90;;;;;;5051673;28;20240;-68
2023/07/02 07:49:35;;;;;;;15.83;10.40;;;27.60;89.30;;;;;;5052044;28;20397;-71
2023/07/02 07:52:00;;;;;;;15.00;9.50;;;28.60;86.40;;;;;;5051879;28;20317;-71
2023/07/02 07:54:26;;;;;;;20.13;10.40;;;28.90;76.40;;;;;;5052080;28;20216;-68
2023/07/02 07:56:51;;;;;;;25.27;11.50;;;28.30;71.00;;;;;;5051518;28;20194;-68
2023/07/02 07:59:17;;;;;;;19.87;11.70;;;27.20;69.00;;;;;;5051942;28;20174;-68
2023/07/02 08:01:43;;;;;;;20.43;11.67;;;26.80;72.80;;;;;;5051895;28;20171;-69
2023/07/02 08:04:08;;;;;;;19.00;9.43;;;26.30;72.70;;;;;;5051863;28;20167;-69
2023/07/02 08:06:34;;;;;;;21.53;12.60;;;26.10;76.30;;;;;;5051298;28;20202;-68
2023/07/02 08:08:59;;;;;;;22.97;10.73;;;25.60;76.70;;;;;;5052001;28;20170;-68
2023/07/02 08:11:25;;;;;;;16.93;10.13;;;25.50;79.00;;;;;;5051779;28;20652;-68
2023/07/02 08:13:50;;;;;;;24.13;11.50;;;25.30;79.70;;;;;;5051844;28;20205;-69
2023/07/02 08:16:16;;;;;;;17.60;10.50;;;24.70;79.70;;;;;;5051378;28;20195;-69
2023/07/02 08:18:41;;;;;;;27.40;18.47;;;24.60;86.20;;;;;;5051748;28;20193;-69
2023/07/02 08:21:07;;;;;;;15.30;9.60;;;24.80;90.60;;;;;;5051771;28;20542;-69
2023/07/02 08:23:33;;;;;;;21.83;10.00;;;25.40;90.60;;;;;;5051774;28;20736;-69
2023/07/02 08:25:58;;;;;;;15.50;11.43;;;26.10;84.80;;;;;;5051368;28;20561;-69
2023/07/02 08:28:24;;;;;;;15.77;8.47;;;27.10;83.10;;;;;;5051426;28;20199;-70
2023/07/02 08:30:49;;;;;;;16.43;8.20;;;28.20;74.90;;;;;;5051690;28;20166;-69
2023/07/02 08:33:15;;;;;;;13.80;8.13;;;29.00;67.00;;;;;;5051526;28;20164;-68
2023/07/02 08:35:40;;;;;;;14.93;8.90;;;29.70;63.30;;;;;;5051273;28;20532;-68
2023/07/02 08:38:08;;;;;;;14.77;9.17;;;31.90;62.00;;;;;;5055294;28;20190;-70
2023/07/02 08:40:33;;;;;;;11.67;8.10;;;33.80;52.10;;;;;;5055440;28;20174;-71
2023/07/02 08:42:59;;;;;;;15.03;9.13;;;34.40;46.70;;;;;;5055331;28;20428;-71
2023/07/02 08:45:25;;;;;;;12.40;9.03;;;33.70;44.90;;;;;;5054882;28;20198;-70
2023/07/02 08:47:50;;;;;;;16.43;11.00;;;32.50;44.70;;;;;;5055193;28;20206;-70
2023/07/02 08:50:16;;;;;;;13.63;9.60;;;31.30;45.20;;;;;;5055347;28;20409;-70
2023/07/02 08:52:44;;;;;;;16.37;8.53;;;30.20;46.70;;;;;;5055420;28;20197;-71
2023/07/02 08:55:10;;;;;;;31.63;20.70;;;29.40;49.10;;;;;;5054947;28;20182;-68
2023/07/02 08:57:36;;;;;;;14.57;10.73;;;29.10;50.90;;;;;;5055018;28;20471;-69
2023/07/02 09:00:08;;;;;;;25.87;18.10;;;28.90;50.90;;;;;;5055278;28;20523;-68
2023/07/02 09:02:33;;;;;;;20.97;9.07;;;28.70;51.30;;;;;;5055131;28;20171;-69
2023/07/02 09:05:00;;;;;;;15.40;9.73;;;28.80;52.20;;;;;;5054971;28;20403;-68
2023/07/02 09:07:26;;;;;;;13.97;9.27;;;29.10;53.40;;;;;;5054708;28;20199;-68
2023/07/02 09:09:51;;;;;;;13.17;10.73;;;30.20;52.20;;;;;;5054910;28;20879;-72
2023/07/02 09:12:26;;;;;;;16.30;9.87;;;30.80;48.80;;;;;;5054843;28;20170;-71
2023/07/02 09:15:02;;;;;;;12.73;8.53;;;30.80;47.20;;;;;;5054820;28;20167;-71
2023/07/02 09:17:33;;;;;;;15.00;10.70;;;30.60;47.50;;;;;;5053569;28;20444;-69
2023/07/02 09:20:01;;;;;;;17.37;10.30;;;30.00;47.60;;;;;;5054734;28;20445;-69
2023/07/02 09:22:26;;;;;;;20.13;9.77;;;29.10;47.50;;;;;;5054702;28;20894;-69
2023/07/02 09:24:54;;;;;;;16.40;11.00;;;28.50;49.60;;;;;;5054610;28;20433;-69
2023/07/02 09:27:20;;;;;;;17.67;9.83;;;27.80;50.10;;;;;;5054118;28;20216;-69
2023/07/02 09:29:52;;;;;;;20.77;11.70;;;27.10;51.00;;;;;;5054529;28;20435;-69
2023/07/02 09:32:26;;;;;;;17.40;10.10;;;27.10;53.70;;;;;;5054720;28;20398;-69
2023/07/02 09:34:53;;;;;;;25.13;17.30;;;27.30;54.60;;;;;;5054296;28;20397;-71
2023/07/02 09:37:19;;;;;;;12.70;9.70;;;27.80;54.20;;;;;;5054343;28;20429;-70
2023/07/02 09:39:51;;;;;;;18.50;10.77;;;28.10;55.70;;;;;;5054319;28;20428;-72
2023/07/02 09:42:19;;;;;;;17.57;10.10;;;30.20;53.20;;;;;;5054327;28;20292;-70
2023/07/02 09:44:45;;;;;;;18.57;11.67;;;30.80;48.50;;;;;;5054182;28;20410;-70
2023/07/02 09:47:12;;;;;;;16.60;10.00;;;31.10;47.10;;;;;;5053589;28;20452;-68
2023/07/02 09:49:55;;;;;;;14.57;9.50;;;32.60;47.90;;;;;;5054251;28;20409;-69
2023/07/02 09:52:21;;;;;;;20.00;11.43;;;34.50;47.00;;;;;;5054184;28;20733;-71
2023/07/02 09:54:47;;;;;;;17.07;10.83;;;36.30;41.70;;;;;;5054031;28;20419;-70
2023/07/02 09:57:13;;;;;;;12.50;10.37;;;37.10;41.80;;;;;;5053590;28;20465;-73
2023/07/02 09:59:40;;;;;;;13.53;10.70;;;36.70;38.00;;;;;;5054017;28;20769;-71
2023/07/02 10:02:07;;;;;;;19.97;10.50;;;35.20;37.20;;;;;;5053949;28;20178;-72
2023/07/02 10:04:47;;;;;;;16.97;10.43;;;34.30;36.60;;;;;;5053918;28;20405;-69
2023/07/02 10:07:25;;;;;;;16.23;10.17;;;32.70;36.80;;;;;;5053244;28;20491;-68
2023/07/02 10:09:50;;;;;;;15.90;9.30;;;31.80;39.90;;;;;;5053867;28;20771;-71
2023/07/02 10:12:16;;;;;;;15.80;9.93;;;31.30;41.70;;;;;;5053716;28;20393;-68
2023/07/02 10:14:43;;;;;;;14.70;8.93;;;30.80;42.50;;;;;;5053730;28;20167;-68
2023/07/02 10:17:08;;;;;;;17.00;10.07;;;30.60;43.30;;;;;;5052136;28;20721;-69
2023/07/02 10:19:34;;;;;;;14.07;8.43;;;29.90;41.80;;;;;;5053625;28;20405;-70
2023/07/02 10:22:04;;;;;;;16.83;9.77;;;29.10;43.10;;;;;;5053669;28;20167;-71
2023/07/02 10:24:30;;;;;;;19.13;10.20;;;28.20;43.50;;;;;;5053446;28;20233;-69
2023/07/02 10:26:56;;;;;;;11.57;8.13;;;27.70;45.80;;;;;;5053093;28;20445;-70
2023/07/02 10:29:26;;;;;;;13.53;9.03;;;27.50;47.50;;;;;;5053525;28;20759;-68
2023/07/02 10:31:57;;;;;;;14.77;9.30;;;27.00;47.50;;;;;;5053459;28;20420;-71
2023/07/02 10:34:35;;;;;;;13.70;9.30;;;27.10;49.60;;;;;;5053598;28;20769;-72
2023/07/02 10:37:02;;;;;;;12.47;9.40;;;29.40;49.80;;;;;;5053054;28;20424;-70
2023/07/02 10:39:31;;;;;;;13.20;8.60;;;31.40;47.30;;;;;;5053232;28;20441;-70
2023/07/02 10:42:07;;;;;;;13.53;8.23;;;31.50;44.20;;;;;;5053288;28;20409;-68
2023/07/02 10:44:33;;;;;;;15.77;10.50;;;30.10;41.80;;;;;;5053244;28;21176;-72
2023/07/02 10:46:59;;;;;;;15.50;9.87;;;28.80;43.00;;;;;;5052684;28;20449;-70
2023/07/02 10:49:31;;;;;;;13.60;8.43;;;27.80;45.60;;;;;;5053089;28;20410;-69
2023/07/02 10:52:01;;;;;;;16.17;9.10;;;27.70;48.40;;;;;;5053064;28;20165;-68
2023/07/02 10:54:45;;;;;;;12.80;9.23;;;27.40;47.80;;;;;;5051718;28;20410;-71
2023/07/02 10:57:14;;;;;;;13.57;8.27;;;27.10;48.90;;;;;;5052728;28;20421;-69
2023/07/02 10:59:40;;;;;;;14.10;8.77;;;26.80;49.40;;;;;;5052361;28;20398;-69
2023/07/02 11:02:06;;;;;;;17.63;9.53;;;26.60;50.60;;;;;;5052890;28;20764;-70
2023/07/02 11:04:33;;;;;;;18.33;9.40;;;26.30;49.80;;;;;;5052797;28;20181;-71
2023/07/02 11:06:59;;;;;;;15.97;9.50;;;26.40;50.30;;;;;;5052229;28;20485;-73
2023/07/02 11:09:25;;;;;;;13.90;9.20;;;26.80;50.30;;;;;;5052734;28;20416;-69
2023/07/02 11:11:59;;;;;;;18.37;9.23;;;28.40;50.20;;;;;;5052678;28;20439;-73
2023/07/02 11:14:34;;;;;;;14.70;9.80;;;29.70;47.80;;;;;;5052283;28;20639;-72
2023/07/02 11:17:05;;;;;;;13.27;9.20;;;30.60;47.70;;;;;;5052188;28;20425;-69
2023/07/02 11:19:31;;;;;;;14.83;8.70;;;30.70;46.20;;;;;;5052548;28;20484;-68
2023/07/02 11:21:58;;;;;;;17.27;10.67;;;30.40;45.90;;;;;;5052669;28;20398;-70
2023/07/02 11:24:41;;;;;;;13.50;8.40;;;30.20;45.10;;;;;;5052309;28;20401;-71
2023/07/02 11:27:07;;;;;;;19.57;11.00;;;30.60;46.10;;;;;;5052045;28;20471;-72
2023/07/02 11:29:34;;;;;;;12.30;9.40;;;31.10;45.40;;;;;;5052276;28;20405;-71
2023/07/02 11:32:12;;;;;;;14.17;7.33;;;30.80;44.00;;;;;;5052403;28;20159;-71
2023/07/02 11:34:38;;;;;;;16.27;9.20;;;30.50;44.60;;;;;;5052356;28;20425;-72
2023/07/02 11:37:04;;;;;;;12.93;9.63;;;30.80;45.50;;;;;;5051900;28;20429;-72
2023/07/02 11:39:30;;;;;;;15.63;8.47;;;32.40;46.00;;;;;;5052204;28;20463;-72
2023/07/02 11:41:56;;;;;;;15.97;9.40;;;35.60;45.10;;;;;;5052101;28;20410;-73
2023/07/02 11:44:22;;;;;;;13.90;9.27;;;38.10;38.10;;;;;;5052238;28;20387;-72
2023/07/02 11:46:48;;;;;;;12.80;9.03;;;40.10;36.00;;;;;;5051624;28;20191;-73
2023/07/02 11:49:14;;;;;;;10.83;7.93;;;39.90;31.10;;;;;;5052021;28;20163;-73
2023/07/02 11:51:48;;;;;;;10.23;8.23;;;39.10;31.30;;;;;;5052101;28;20405;-73
2023/07/02 11:54:13;;;;;;;14.67;8.83;;;38.90;30.70;;;;;;5051909;28;20158;-73
2023/07/02 11:56:41;;;;;;;10.37;8.47;;;40.40;31.80;;;;;;5051530;28;20456;-72
2023/07/02 11:59:07;;;;;;;10.57;7.23;;;40.40;28.10;;;;;;5051778;28;20216;-71
2023/07/02 12:01:32;;;;;;;12.23;7.47;;;38.60;27.60;;;;;;5052246;28;20507;-74
2023/07/02 12:03:58;;;;;;;8.97;7.43;;;37.10;29.50;;;;;;5052922;28;20159;-73
2023/07/02 12:06:24;;;;;;;11.63;7.60;;;34.90;28.40;;;;;;5050627;28;20189;-73
2023/07/02 12:08:49;;;;;;;7.50;5.60;;;33.20;30.40;;;;;;5052476;28;20432;-73
2023/07/02 12:11:15;;;;;;;9.77;6.60;;;32.20;32.30;;;;;;5056473;28;20171;-74
2023/07/02 12:13:41;;;;;;;10.23;7.20;;;31.50;33.70;;;;;;5056414;28;20190;-73
2023/07/02 12:16:06;;;;;;;9.37;6.07;;;31.00;34.90;;;;;;5056167;28;20422;-73
2023/07/02 12:18:32;;;;;;;8.20;5.83;;;30.50;34.10;;;;;;5054891;28;20268;-74
2023/07/02 12:20:57;;;;;;;9.47;6.13;;;29.90;33.80;;;;;;5056240;28;20171;-72
2023/07/02 12:23:23;;;;;;;13.83;6.73;;;29.50;34.90;;;;;;5055946;28;20194;-74
2023/07/02 12:25:48;;;;;;;10.40;7.07;;;28.80;34.50;;;;;;5055599;28;20182;-73
2023/07/02 12:28:14;;;;;;;12.50;7.57;;;28.50;36.60;;;;;;5055710;28;20691;-71
2023/07/02 12:30:40;;;;;;;11.73;7.03;;;28.10;37.20;;;;;;5054542;28;20647;-73
2023/07/02 12:33:05;;;;;;;8.70;5.50;;;28.00;38.70;;;;;;5055382;28;20193;-73